Time;durP1;ratioP1;P1;durP2;ratioP2;P2;SDS_P1;SDS_P2;PMS_P1;PMS_P2;Temp;Humidity;BMP_temperature;BMP_pressure;BME280_temperature;BME280_humidity;BME280_pressure;Samples;Min_cycle;Max_cycle;Signal;HPM_P1;HPM_P2
2022/12/03 00:01:35;;;;;;;13.55;6.47;;;18.10;56.30;;;;;;10469809;28;20041;-33
2022/12/03 00:06:39;;;;;;;10.20;6.33;;;18.00;56.30;;;;;;10476347;28;20079;-33
2022/12/03 00:11:41;;;;;;;10.05;5.97;;;18.00;56.40;;;;;;10487503;28;20049;-33
2022/12/03 00:16:43;;;;;;;10.02;6.03;;;18.10;56.20;;;;;;10481084;28;20087;-32
2022/12/03 00:21:46;;;;;;;14.50;6.30;;;18.00;56.20;;;;;;10491684;28;20443;-31
2022/12/03 00:26:48;;;;;;;14.73;6.35;;;18.10;55.90;;;;;;10493548;28;20735;-31
2022/12/03 00:31:50;;;;;;;10.52;6.40;;;18.00;55.90;;;;;;10488661;28;20446;-32
2022/12/03 00:36:53;;;;;;;12.85;6.40;;;17.70;56.40;;;;;;10481877;28;20080;-34
2022/12/03 00:41:55;;;;;;;11.23;5.93;;;17.90;56.00;;;;;;10479468;28;20052;-37
2022/12/03 00:46:57;;;;;;;13.20;6.63;;;17.90;56.20;;;;;;10466447;28;20076;-34
2022/12/03 00:52:00;;;;;;;11.53;5.97;;;18.00;56.00;;;;;;10478320;28;20523;-31
2022/12/03 00:57:01;;;;;;;10.20;5.68;;;18.00;56.00;;;;;;10466054;28;20466;-31
2022/12/03 01:02:03;;;;;;;13.10;6.03;;;18.00;55.80;;;;;;10491916;28;20556;-31
2022/12/03 01:07:06;;;;;;;12.80;6.23;;;17.90;55.90;;;;;;10493332;28;20429;-33
2022/12/03 01:12:08;;;;;;;9.43;5.43;;;17.90;56.00;;;;;;10486830;28;20498;-31
2022/12/03 01:17:11;;;;;;;9.07;5.60;;;17.90;56.10;;;;;;10489631;28;20102;-29
2022/12/03 01:22:14;;;;;;;10.55;5.32;;;17.80;56.00;;;;;;10484278;28;20355;-35
2022/12/03 01:27:16;;;;;;;11.05;5.55;;;17.80;55.90;;;;;;10483451;28;20481;-30
2022/12/03 01:32:18;;;;;;;10.30;5.85;;;17.90;55.90;;;;;;10475000;28;20045;-34
2022/12/03 01:37:23;;;;;;;7.93;4.65;;;17.80;56.00;;;;;;10490783;28;20054;-30
2022/12/03 01:42:28;;;;;;;11.70;5.13;;;17.90;55.80;;;;;;10482378;28;20149;-33
2022/12/03 01:47:32;;;;;;;7.13;4.88;;;17.90;55.80;;;;;;10485209;28;20833;-32
2022/12/03 01:52:39;;;;;;;9.27;5.43;;;17.80;55.90;;;;;;10480386;28;20068;-32
2022/12/03 01:57:43;;;;;;;9.90;5.25;;;17.80;55.90;;;;;;10483070;28;20661;-31
2022/12/03 02:02:46;;;;;;;8.40;4.68;;;17.70;55.80;;;;;;10474854;28;20056;-31
2022/12/03 02:07:50;;;;;;;8.80;5.18;;;17.80;55.80;;;;;;10490475;28;20085;-31
2022/12/03 02:12:56;;;;;;;7.65;4.38;;;17.50;56.50;;;;;;10470377;28;20079;-32
2022/12/03 02:17:59;;;;;;;10.48;5.07;;;17.70;55.80;;;;;;10472321;28;20101;-33
2022/12/03 02:23:11;;;;;;;8.52;4.50;;;17.70;55.80;;;;;;10478632;28;20072;-31
2022/12/03 02:28:14;;;;;;;9.60;5.33;;;17.70;55.70;;;;;;10474187;28;20098;-26
2022/12/03 02:33:16;;;;;;;9.35;5.25;;;17.80;55.90;;;;;;10471972;28;20470;-33
2022/12/03 02:38:21;;;;;;;9.47;5.27;;;17.70;55.90;;;;;;10463857;28;20084;-31
2022/12/03 02:43:26;;;;;;;7.57;4.72;;;17.60;55.60;;;;;;10459871;28;20490;-30
2022/12/03 02:48:31;;;;;;;7.05;4.40;;;17.60;56.20;;;;;;10458831;28;20091;-30
2022/12/03 02:53:37;;;;;;;12.25;4.78;;;17.60;55.80;;;;;;10461534;28;20118;-32
2022/12/03 02:58:43;;;;;;;7.93;4.88;;;17.60;55.70;;;;;;10459458;28;20048;-30
2022/12/03 03:03:47;;;;;;;7.53;4.57;;;17.60;55.60;;;;;;10459133;28;20044;-34
2022/12/03 03:08:49;;;;;;;6.43;4.32;;;17.70;55.50;;;;;;10458605;28;20049;-30
2022/12/03 03:13:52;;;;;;;6.30;4.40;;;17.60;54.70;;;;;;10457227;28;20114;-31
2022/12/03 03:18:54;;;;;;;11.82;4.53;;;17.60;55.50;;;;;;10455614;28;20496;-33
2022/12/03 03:23:56;;;;;;;6.38;4.38;;;17.50;55.80;;;;;;10453838;28;20437;-31
2022/12/03 03:29:01;;;;;;;7.83;4.83;;;17.60;55.60;;;;;;10463708;28;20535;-31
2022/12/03 03:34:03;;;;;;;11.00;4.53;;;17.60;55.60;;;;;;10466399;28;20466;-28
2022/12/03 03:39:06;;;;;;;9.13;3.92;;;17.50;55.70;;;;;;10469630;28;20148;-32
2022/12/03 03:44:09;;;;;;;;;;;17.60;55.70;;;;;;10495766;28;20565;-34
2022/12/03 03:49:12;;;;;;;7.55;4.20;;;17.50;55.60;;;;;;10482987;28;19989;-30
2022/12/03 03:54:15;;;;;;;7.68;4.55;;;17.50;55.70;;;;;;10495077;28;20072;-30
2022/12/03 03:59:18;;;;;;;;;;;17.60;55.60;;;;;;10495403;28;20071;-31
2022/12/03 04:04:22;;;;;;;9.23;4.90;;;17.50;55.70;;;;;;10494800;28;19928;-30
2022/12/03 04:09:24;;;;;;;9.25;4.35;;;17.40;55.60;;;;;;10494912;28;20048;-31
2022/12/03 04:14:27;;;;;;;5.10;4.17;;;17.50;55.60;;;;;;10484764;28;20615;-26
2022/12/03 04:19:29;;;;;;;7.88;4.60;;;17.50;55.60;;;;;;10492504;28;20587;-32
2022/12/03 04:24:31;;;;;;;6.97;4.10;;;17.50;55.60;;;;;;10487654;28;20078;-30
2022/12/03 04:29:34;;;;;;;6.33;4.20;;;17.50;55.60;;;;;;10482848;28;20479;-30
2022/12/03 04:39:56;;;;;;;7.78;3.97;;;17.50;55.60;;;;;;10489842;28;20048;-34
2022/12/03 04:44:59;;;;;;;6.00;3.63;;;17.50;55.60;;;;;;10491102;28;20090;-31
2022/12/03 04:50:01;;;;;;;5.43;4.10;;;17.50;55.50;;;;;;10489308;28;20083;-31
2022/12/03 04:55:03;;;;;;;6.23;3.97;;;17.40;55.50;;;;;;10482018;28;20056;-31
2022/12/03 05:00:08;;;;;;;6.05;4.30;;;17.40;55.40;;;;;;10491183;28;20049;-31
2022/12/03 05:05:10;;;;;;;6.78;3.78;;;17.40;55.40;;;;;;10493693;28;20098;-30
2022/12/03 05:10:12;;;;;;;7.07;3.88;;;17.50;55.20;;;;;;10491299;28;20048;-30
2022/12/03 05:15:15;;;;;;;5.18;3.80;;;17.40;56.10;;;;;;10492303;28;20155;-35
2022/12/03 05:25:37;;;;;;;8.20;3.95;;;17.40;55.30;;;;;;10479057;28;20503;-30
2022/12/03 05:30:40;;;;;;;9.43;4.22;;;17.40;55.50;;;;;;10496755;28;20102;-28
2022/12/03 05:35:42;;;;;;;6.65;3.95;;;17.40;55.60;;;;;;10492368;28;20044;-31
2022/12/03 05:40:44;;;;;;;7.18;3.78;;;17.30;55.50;;;;;;10492481;28;20106;-30
2022/12/03 05:45:47;;;;;;;5.95;4.28;;;17.10;55.60;;;;;;10480264;28;20053;-30
2022/12/03 05:50:49;;;;;;;6.45;3.55;;;17.30;55.50;;;;;;10474811;28;20087;-30
2022/12/03 05:55:51;;;;;;;;;;;17.30;55.60;;;;;;10481189;28;20154;-31
2022/12/03 06:00:54;;;;;;;6.20;4.03;;;17.40;55.60;;;;;;10486684;28;19920;-38
2022/12/03 06:05:56;;;;;;;5.28;4.03;;;17.50;56.10;;;;;;10473746;28;20511;-37
2022/12/03 06:10:58;;;;;;;6.87;3.67;;;17.60;55.40;;;;;;10487500;28;20044;-31
2022/12/03 06:16:01;;;;;;;5.77;3.97;;;17.60;55.30;;;;;;10489292;28;20135;-31
2022/12/03 06:21:03;;;;;;;5.68;3.55;;;17.70;55.20;;;;;;10489141;28;20044;-32
2022/12/03 06:26:05;;;;;;;5.22;3.38;;;17.70;55.30;;;;;;10486797;28;20066;-33
2022/12/03 06:31:08;;;;;;;5.47;3.95;;;17.70;55.20;;;;;;10479523;28;20119;-31
2022/12/03 06:36:10;;;;;;;4.75;3.30;;;17.80;55.80;;;;;;10485877;28;20162;-31
2022/12/03 06:41:12;;;;;;;4.97;3.17;;;17.80;55.30;;;;;;10473964;28;20052;-31
2022/12/03 06:46:15;;;;;;;5.83;3.73;;;17.80;55.20;;;;;;10478230;28;20184;-29
2022/12/03 06:51:17;;;;;;;3.80;3.15;;;17.90;55.10;;;;;;10482920;28;20049;-31
2022/12/03 06:56:19;;;;;;;5.90;4.00;;;17.90;55.20;;;;;;10479567;28;20074;-29
2022/12/03 07:01:22;;;;;;;5.15;3.40;;;17.90;55.10;;;;;;10488642;28;20076;-30
2022/12/03 07:15:44;;;;;;;5.32;3.45;;;17.90;54.70;;;;;;10558360;27;20638;-32
2022/12/03 07:20:46;;;;;;;7.25;4.00;;;17.90;55.20;;;;;;10526928;28;20060;-30
2022/12/03 07:25:48;;;;;;;5.57;3.43;;;17.90;55.20;;;;;;10520641;28;20067;-33
2022/12/03 07:30:51;;;;;;;5.40;3.38;;;18.00;55.10;;;;;;10518985;28;20048;-31
2022/12/03 07:35:53;;;;;;;5.90;3.58;;;18.00;55.10;;;;;;10508105;28;20076;-33
2022/12/03 07:40:55;;;;;;;5.75;3.55;;;18.00;55.30;;;;;;10508235;28;20044;-31
2022/12/03 07:45:58;;;;;;;5.57;3.73;;;18.00;55.30;;;;;;10502600;28;20072;-37
2022/12/03 07:51:00;;;;;;;5.85;3.95;;;18.00;55.20;;;;;;10501107;28;20048;-30
2022/12/03 07:56:02;;;;;;;4.47;3.15;;;18.10;55.20;;;;;;10495318;28;20049;-32
2022/12/03 08:01:05;;;;;;;6.07;3.70;;;18.10;55.10;;;;;;10495505;28;20056;-32
2022/12/03 08:06:07;;;;;;;6.22;3.42;;;18.00;55.10;;;;;;10495027;28;20132;-31
2022/12/03 08:11:12;;;;;;;7.63;3.92;;;18.10;55.00;;;;;;10517816;28;20481;-30
2022/12/03 08:16:18;;;;;;;4.63;3.22;;;18.10;55.10;;;;;;10492448;28;20550;-29
2022/12/03 08:21:21;;;;;;;6.32;3.67;;;18.10;54.90;;;;;;10494781;28;20137;-31
2022/12/03 08:26:26;;;;;;;5.30;3.70;;;18.10;54.90;;;;;;10470076;28;20122;-31
2022/12/03 08:31:31;;;;;;;10.48;4.20;;;18.20;54.90;;;;;;10475410;28;20044;-30
2022/12/03 08:36:35;;;;;;;7.10;3.88;;;18.20;55.00;;;;;;10479512;28;20048;-31
2022/12/03 08:47:06;;;;;;;6.93;4.25;;;18.20;55.10;;;;;;10485000;28;20493;-30
2022/12/03 08:52:13;;;;;;;;;;;18.20;55.00;;;;;;10486621;28;20451;-28
2022/12/03 08:57:24;;;;;;;7.63;4.65;;;18.20;55.00;;;;;;10474087;28;19974;-32
2022/12/03 09:02:32;;;;;;;7.27;4.40;;;18.10;55.20;;;;;;10483303;28;20116;-30
2022/12/03 09:07:34;;;;;;;7.35;4.30;;;18.20;55.20;;;;;;10477276;28;20087;-32
2022/12/03 09:12:36;;;;;;;10.27;5.73;;;18.20;54.80;;;;;;10485686;28;20150;-32
2022/12/03 09:17:39;;;;;;;11.57;5.07;;;18.30;55.10;;;;;;10487931;28;20131;-32
2022/12/03 09:22:41;;;;;;;8.07;4.55;;;18.30;55.00;;;;;;10480949;28;20480;-31
2022/12/03 09:27:43;;;;;;;8.13;5.20;;;18.40;54.80;;;;;;10467092;28;20493;-33
2022/12/03 09:32:46;;;;;;;6.40;3.95;;;18.20;53.20;;;;;;10468884;28;20482;-31
2022/12/03 09:37:48;;;;;;;14.35;5.68;;;18.30;54.90;;;;;;10486115;28;20491;-30
2022/12/03 09:42:51;;;;;;;8.70;5.55;;;18.10;55.20;;;;;;10489255;28;20080;-31
2022/12/03 09:47:55;;;;;;;11.77;6.78;;;18.00;55.50;;;;;;10479668;28;20048;-31
2022/12/03 09:53:01;;;;;;;14.57;7.50;;;18.10;55.30;;;;;;10468275;28;20068;-36
2022/12/03 09:58:11;;;;;;;11.60;5.07;;;18.00;55.20;;;;;;10463330;28;20482;-35
2022/12/03 10:03:16;;;;;;;12.98;6.53;;;18.10;55.40;;;;;;10460619;28;20057;-31
2022/12/03 10:08:20;;;;;;;12.13;7.10;;;18.00;55.40;;;;;;10465341;28;20444;-31
2022/12/03 10:13:26;;;;;;;9.05;5.20;;;18.10;55.40;;;;;;10462176;28;20138;-34
2022/12/03 10:18:33;;;;;;;9.20;5.68;;;18.10;55.00;;;;;;10458970;28;20478;-30
2022/12/03 10:23:35;;;;;;;15.20;7.88;;;18.10;55.10;;;;;;10461510;28;20072;-30
2022/12/03 10:28:38;;;;;;;21.52;11.43;;;18.10;55.10;;;;;;10462371;28;20078;-30
2022/12/03 10:33:44;;;;;;;21.23;11.50;;;18.10;55.20;;;;;;10456971;28;20072;-30
2022/12/03 10:38:46;;;;;;;30.92;13.57;;;18.10;55.20;;;;;;10463070;28;20049;-29
2022/12/03 10:43:48;;;;;;;13.90;6.75;;;18.10;55.10;;;;;;10454499;28;20095;-33
2022/12/03 10:49:09;;;;;;;9.05;5.47;;;18.20;55.10;;;;;;10464805;28;21882;-34
2022/12/03 10:54:19;;;;;;;17.92;9.77;;;18.10;55.30;;;;;;10465886;28;20482;-30
2022/12/03 10:59:23;;;;;;;13.27;6.65;;;18.30;55.40;;;;;;10479599;28;20049;-30
2022/12/03 11:04:32;;;;;;;13.35;6.22;;;18.30;55.60;;;;;;10470805;28;20382;-30
2022/12/03 11:09:34;;;;;;;13.55;7.40;;;18.40;55.80;;;;;;10479848;28;20098;-30
2022/12/03 11:14:55;;;;;;;;;;;18.10;55.70;;;;;;10475963;28;20052;-31
2022/12/03 11:19:58;;;;;;;15.27;8.80;;;18.30;55.50;;;;;;10478758;28;19932;-35
2022/12/03 11:25:36;;;;;;;16.70;8.57;;;18.10;55.90;;;;;;10463723;28;20049;-36
2022/12/03 11:31:00;;;;;;;19.15;9.15;;;18.40;55.60;;;;;;10460061;28;20161;-29
2022/12/03 11:36:14;;;;;;;33.10;14.70;;;18.30;55.60;;;;;;10484704;28;20589;-34
2022/12/03 11:41:17;;;;;;;31.20;12.02;;;18.20;54.70;;;;;;10468657;28;20048;-31
2022/12/03 11:46:21;;;;;;;25.80;13.88;;;18.30;55.90;;;;;;10482972;28;20071;-32
2022/12/03 11:51:27;;;;;;;11.90;6.93;;;18.30;55.30;;;;;;10469586;28;20477;-34
2022/12/03 11:56:30;;;;;;;10.60;6.28;;;18.50;55.10;;;;;;10472308;28;20071;-28
2022/12/03 12:01:33;;;;;;;15.57;5.53;;;18.60;54.80;;;;;;10470238;28;20055;-30
2022/12/03 12:06:42;;;;;;;18.52;5.60;;;18.60;54.60;;;;;;10470774;28;20072;-31
2022/12/03 12:11:44;;;;;;;11.43;5.30;;;18.60;55.20;;;;;;10463195;28;20111;-30
2022/12/03 12:16:53;;;;;;;10.27;6.40;;;18.60;54.50;;;;;;10464097;28;20052;-33
2022/12/03 12:22:20;;;;;;;13.57;5.75;;;18.70;54.50;;;;;;10464399;28;20119;-31
2022/12/03 12:27:23;;;;;;;9.02;5.60;;;18.70;54.50;;;;;;10456948;28;20067;-29
2022/12/03 12:32:27;;;;;;;11.73;6.13;;;18.70;54.50;;;;;;10483196;28;20501;-29
2022/12/03 12:37:36;;;;;;;13.18;5.90;;;18.70;54.40;;;;;;10485091;28;20080;-27
2022/12/03 12:42:47;;;;;;;10.75;6.15;;;18.70;54.40;;;;;;10487878;28;20037;-32
2022/12/03 12:48:01;;;;;;;11.48;5.85;;;18.60;54.60;;;;;;10483317;28;20555;-30
2022/12/03 12:53:22;;;;;;;10.18;5.63;;;18.70;54.70;;;;;;10481004;28;20053;-29
2022/12/03 12:58:24;;;;;;;19.20;6.05;;;18.80;54.70;;;;;;10487120;28;20098;-29
2022/12/03 13:03:29;;;;;;;13.57;6.93;;;18.70;54.80;;;;;;10489161;28;20052;-32
2022/12/03 13:08:37;;;;;;;15.27;7.45;;;18.70;55.00;;;;;;10490283;28;20489;-30
2022/12/03 13:13:40;;;;;;;14.48;6.18;;;18.70;54.80;;;;;;10490853;28;20056;-31
2022/12/03 13:18:45;;;;;;;10.20;5.95;;;18.80;54.80;;;;;;10484961;28;20090;-31
2022/12/03 13:23:50;;;;;;;9.70;5.28;;;18.80;54.70;;;;;;10479788;28;20098;-28
2022/12/03 13:28:53;;;;;;;9.43;5.68;;;18.70;54.70;;;;;;10477491;28;20098;-28
2022/12/03 13:33:56;;;;;;;8.95;5.35;;;18.70;54.60;;;;;;10476240;28;20056;-31
2022/12/03 13:39:00;;;;;;;10.45;5.88;;;18.80;54.70;;;;;;10472498;28;20064;-30
2022/12/03 13:44:02;;;;;;;15.65;6.03;;;18.80;54.70;;;;;;10481897;28;20051;-29
2022/12/03 13:49:13;;;;;;;13.13;5.88;;;18.80;54.60;;;;;;10482360;28;20136;-30
2022/12/03 13:54:21;;;;;;;10.32;5.50;;;18.80;54.60;;;;;;10458417;28;20128;-30
2022/12/03 13:59:24;;;;;;;12.93;5.90;;;18.80;54.60;;;;;;10490814;28;20091;-29
2022/12/03 14:04:26;;;;;;;13.43;6.10;;;18.90;54.50;;;;;;10485629;28;20127;-30
2022/12/03 14:09:29;;;;;;;15.40;6.03;;;19.20;54.10;;;;;;10477404;28;20127;-31
2022/12/03 14:14:31;;;;;;;11.63;5.10;;;19.00;54.10;;;;;;10477573;28;20058;-30
2022/12/03 14:19:33;;;;;;;20.30;6.78;;;19.00;54.20;;;;;;10464868;28;20094;-32
2022/12/03 14:24:38;;;;;;;9.85;6.53;;;18.90;54.30;;;;;;10453366;28;20105;-31
2022/12/03 14:29:40;;;;;;;12.38;5.63;;;19.00;54.10;;;;;;10457311;28;20499;-31
2022/12/03 14:34:42;;;;;;;8.82;5.30;;;18.90;54.10;;;;;;10473512;28;20110;-36
2022/12/03 14:39:45;;;;;;;11.23;6.32;;;19.00;53.90;;;;;;10458761;28;20138;-32
2022/12/03 14:44:48;;;;;;;11.57;5.55;;;18.90;53.80;;;;;;10482907;28;20074;-31
2022/12/03 14:49:51;;;;;;;13.80;5.38;;;18.90;53.90;;;;;;10482454;28;20052;-30
2022/12/03 14:54:54;;;;;;;15.45;6.90;;;18.90;53.70;;;;;;10502212;28;20088;-33
2022/12/03 14:59:56;;;;;;;11.82;5.97;;;19.00;53.40;;;;;;10477963;28;20139;-30
2022/12/03 15:04:58;;;;;;;9.52;5.10;;;18.90;53.60;;;;;;10474339;28;20057;-29
2022/12/03 15:10:01;;;;;;;13.55;6.25;;;18.80;53.70;;;;;;10485537;28;20127;-30
2022/12/03 15:15:03;;;;;;;12.73;5.63;;;18.80;53.80;;;;;;10475278;28;20057;-29
2022/12/03 15:20:06;;;;;;;11.93;5.82;;;18.80;53.60;;;;;;10488747;28;20054;-31
2022/12/03 15:25:10;;;;;;;9.85;5.10;;;18.90;53.40;;;;;;10484561;28;20084;-32
2022/12/03 15:30:12;;;;;;;19.40;7.07;;;19.00;53.20;;;;;;10469567;28;20782;-32
2022/12/03 15:35:17;;;;;;;24.98;6.90;;;19.00;53.00;;;;;;10485855;28;20076;-31
2022/12/03 15:40:20;;;;;;;11.63;6.18;;;19.00;52.80;;;;;;10494756;28;20049;-32
2022/12/03 15:45:22;;;;;;;20.50;6.25;;;18.90;52.50;;;;;;10490880;28;20048;-32
2022/12/03 15:50:24;;;;;;;12.30;6.70;;;18.90;52.40;;;;;;10491637;28;20153;-27
2022/12/03 15:55:27;;;;;;;17.95;6.43;;;18.90;51.90;;;;;;10485296;28;20082;-31
2022/12/03 16:00:29;;;;;;;12.57;5.97;;;18.90;51.80;;;;;;10492916;28;20044;-31
2022/12/03 16:05:31;;;;;;;15.18;7.18;;;18.80;51.60;;;;;;10476434;28;20075;-30
2022/12/03 16:10:34;;;;;;;20.60;8.13;;;18.80;51.00;;;;;;10474973;28;20157;-31
2022/12/03 16:15:36;;;;;;;19.90;8.55;;;18.80;50.90;;;;;;10467421;28;20518;-28
2022/12/03 16:20:38;;;;;;;16.27;6.45;;;19.00;50.70;;;;;;10488648;28;20331;-36
2022/12/03 16:25:41;;;;;;;16.55;8.40;;;19.00;50.30;;;;;;10490436;28;20135;-31
2022/12/03 16:30:43;;;;;;;17.98;8.02;;;19.00;50.20;;;;;;10485962;28;20044;-36
2022/12/03 16:35:45;;;;;;;15.85;7.53;;;19.00;49.80;;;;;;10484021;28;20755;-36
2022/12/03 16:40:48;;;;;;;18.77;9.00;;;19.10;49.70;;;;;;10482692;28;20059;-31
2022/12/03 16:46:19;;;;;;;17.42;9.07;;;19.10;49.50;;;;;;10481909;28;20538;-31
2022/12/03 16:51:21;;;;;;;21.35;8.75;;;19.10;49.30;;;;;;10475819;28;20049;-30
2022/12/03 16:56:24;;;;;;;15.65;8.05;;;19.10;49.30;;;;;;10470566;28;20135;-30
2022/12/03 17:01:26;;;;;;;20.67;9.55;;;19.20;49.10;;;;;;10480226;28;20604;-32
2022/12/03 17:06:28;;;;;;;23.45;9.98;;;19.20;48.90;;;;;;10486210;28;20048;-31
2022/12/03 17:11:31;;;;;;;19.35;9.73;;;19.00;49.30;;;;;;10472356;28;20052;-31
2022/12/03 17:16:33;;;;;;;21.90;9.70;;;18.80;50.10;;;;;;10476150;28;20078;-31
2022/12/03 17:21:35;;;;;;;20.15;10.55;;;18.70;50.60;;;;;;10473794;28;20067;-30
2022/12/03 17:26:40;;;;;;;20.65;10.50;;;18.70;50.70;;;;;;10477214;28;20094;-31
2022/12/03 17:31:42;;;;;;;22.77;10.50;;;18.70;50.90;;;;;;10480071;28;20504;-33
2022/12/03 17:36:44;;;;;;;20.38;9.55;;;18.70;51.10;;;;;;10479966;28;20148;-30
2022/12/03 17:41:47;;;;;;;17.33;7.30;;;18.70;51.30;;;;;;10488475;28;20520;-30
2022/12/03 17:46:49;;;;;;;16.45;7.80;;;18.80;51.00;;;;;;10488020;28;20174;-32
2022/12/03 17:51:51;;;;;;;19.58;10.23;;;18.80;51.00;;;;;;10480586;28;20048;-29
2022/12/03 17:56:54;;;;;;;21.85;12.00;;;18.80;51.90;;;;;;10473361;28;20088;-30
2022/12/03 18:01:57;;;;;;;38.58;17.20;;;18.70;51.40;;;;;;10470825;28;20045;-30
2022/12/03 18:06:58;;;;;;;35.60;16.25;;;18.60;51.40;;;;;;10479430;28;20052;-31
2022/12/03 18:12:02;;;;;;;31.90;15.30;;;18.60;51.60;;;;;;10491436;28;20053;-30
2022/12/03 18:17:03;;;;;;;36.05;17.05;;;18.60;51.90;;;;;;10487523;28;20093;-31
2022/12/03 18:22:05;;;;;;;27.75;12.13;;;18.70;51.70;;;;;;10492562;28;20106;-30
2022/12/03 18:27:09;;;;;;;31.77;16.60;;;18.70;51.90;;;;;;10488861;28;20040;-31
2022/12/03 18:32:11;;;;;;;44.20;21.67;;;18.60;52.10;;;;;;10483033;28;20052;-30
2022/12/03 18:37:14;;;;;;;31.02;15.85;;;18.50;52.30;;;;;;10484466;28;20149;-31
2022/12/03 18:42:20;;;;;;;39.08;22.02;;;18.50;52.30;;;;;;10487645;28;20053;-30
2022/12/03 18:47:24;;;;;;;23.52;13.35;;;18.60;52.20;;;;;;10484216;28;20452;-31
2022/12/03 18:52:26;;;;;;;40.75;22.95;;;18.50;52.40;;;;;;10484839;28;20424;-32
2022/12/03 18:57:30;;;;;;;41.55;21.73;;;18.50;52.60;;;;;;10478303;28;20136;-29
2022/12/03 19:02:31;;;;;;;39.58;19.75;;;18.40;52.70;;;;;;10468629;28;20131;-31
2022/12/03 19:07:33;;;;;;;38.80;18.83;;;18.50;52.80;;;;;;10480474;28;20102;-31
2022/12/03 19:12:37;;;;;;;25.63;14.75;;;18.40;52.90;;;;;;10484422;28;20555;-31
2022/12/03 19:17:39;;;;;;;13.40;7.68;;;18.40;53.00;;;;;;10482631;28;20149;-30
2022/12/03 19:22:41;;;;;;;14.98;7.47;;;18.60;52.90;;;;;;10490763;28;20088;-30
2022/12/03 19:27:44;;;;;;;12.13;6.25;;;18.60;52.90;;;;;;10486004;28;20072;-29
2022/12/03 19:32:50;;;;;;;14.65;6.18;;;18.60;52.90;;;;;;10485373;28;20078;-32
2022/12/03 19:37:52;;;;;;;11.13;5.80;;;18.70;52.80;;;;;;10479773;28;20111;-31
2022/12/03 19:42:55;;;;;;;9.02;5.38;;;18.70;52.90;;;;;;10479135;28;20512;-30
2022/12/03 19:47:58;;;;;;;11.38;5.95;;;18.70;52.90;;;;;;10480780;28;20076;-30
2022/12/03 19:53:00;;;;;;;12.68;5.78;;;18.60;53.00;;;;;;10479280;28;20516;-36
2022/12/03 19:58:03;;;;;;;13.45;7.30;;;18.70;53.00;;;;;;10481210;28;20440;-29
2022/12/03 20:03:05;;;;;;;11.48;6.68;;;18.70;53.00;;;;;;10474981;28;20041;-31
2022/12/03 20:08:08;;;;;;;11.90;6.70;;;18.70;53.00;;;;;;10476027;28;20144;-30
2022/12/03 20:13:11;;;;;;;12.63;6.07;;;18.70;52.80;;;;;;10478348;28;20147;-32
2022/12/03 20:18:13;;;;;;;17.88;5.90;;;18.80;52.80;;;;;;10470488;28;20068;-29
2022/12/03 20:23:14;;;;;;;11.50;6.10;;;18.70;52.70;;;;;;10489425;28;20048;-30
2022/12/03 20:28:18;;;;;;;11.93;5.85;;;18.80;52.70;;;;;;10480706;28;20135;-30
2022/12/03 20:33:20;;;;;;;15.60;7.13;;;18.80;52.60;;;;;;10483747;28;20059;-30
2022/12/03 20:38:22;;;;;;;17.80;7.25;;;18.70;52.60;;;;;;10484416;28;20045;-34
2022/12/03 20:43:25;;;;;;;15.50;7.72;;;18.80;52.60;;;;;;10494448;28;20048;-32
2022/12/03 20:48:27;;;;;;;12.52;6.50;;;18.80;52.60;;;;;;10488627;28;20114;-32
2022/12/03 20:53:29;;;;;;;15.55;7.22;;;18.80;52.60;;;;;;10486590;28;20045;-31
2022/12/03 20:58:33;;;;;;;17.67;7.15;;;18.70;52.40;;;;;;10474691;28;20066;-33
2022/12/03 21:03:35;;;;;;;18.27;6.28;;;18.70;52.50;;;;;;10479779;28;20469;-31
2022/12/03 21:08:37;;;;;;;13.07;7.07;;;18.70;52.60;;;;;;10478782;28;20045;-36
2022/12/03 21:13:42;;;;;;;22.63;8.73;;;18.70;52.50;;;;;;10478707;28;20445;-30
2022/12/03 21:18:44;;;;;;;13.25;6.95;;;18.60;52.40;;;;;;10466212;28;20459;-30
2022/12/03 21:23:46;;;;;;;12.85;6.45;;;18.70;52.30;;;;;;10468785;28;20057;-29
2022/12/03 21:28:51;;;;;;;12.73;6.63;;;18.70;52.40;;;;;;10464339;28;20145;-29
2022/12/03 21:33:55;;;;;;;13.30;7.45;;;18.70;52.40;;;;;;10463491;28;20139;-31
2022/12/03 21:38:56;;;;;;;14.02;7.50;;;18.70;52.40;;;;;;10468054;28;20037;-35
2022/12/03 21:44:00;;;;;;;16.55;7.55;;;18.70;52.50;;;;;;10461648;28;20040;-35
2022/12/03 21:49:01;;;;;;;14.80;7.53;;;18.60;52.40;;;;;;10462455;28;20087;-31
2022/12/03 21:54:03;;;;;;;13.88;6.60;;;18.50;52.50;;;;;;10471162;28;20049;-35
2022/12/03 21:59:07;;;;;;;12.07;6.70;;;18.50;52.60;;;;;;10488519;28;20049;-29
2022/12/03 22:04:09;;;;;;;16.95;7.03;;;18.50;52.60;;;;;;10492835;28;20084;-31
2022/12/03 22:09:11;;;;;;;14.00;7.38;;;18.50;52.70;;;;;;10498018;28;20133;-29
2022/12/03 22:14:14;;;;;;;15.05;7.22;;;18.40;52.60;;;;;;10492402;28;20120;-30
2022/12/03 22:19:16;;;;;;;12.00;6.60;;;18.40;52.70;;;;;;10492985;28;20048;-27
2022/12/03 22:24:18;;;;;;;13.40;7.47;;;18.30;52.70;;;;;;10474533;28;20444;-30
2022/12/03 22:29:21;;;;;;;13.52;7.07;;;18.30;52.80;;;;;;10479416;28;20072;-31
2022/12/03 22:34:24;;;;;;;19.27;7.18;;;18.30;52.80;;;;;;10479434;28;20076;-29
2022/12/03 22:39:25;;;;;;;14.90;7.72;;;18.20;52.80;;;;;;10471142;28;20447;-30
2022/12/03 22:44:29;;;;;;;23.00;11.68;;;18.20;52.80;;;;;;10469004;28;20812;-28
2022/12/03 22:49:31;;;;;;;20.33;10.35;;;18.10;52.70;;;;;;10489887;28;20080;-30
2022/12/03 22:54:32;;;;;;;15.32;7.53;;;18.10;52.60;;;;;;10478170;28;20074;-30
2022/12/03 22:59:36;;;;;;;11.75;6.78;;;18.10;52.70;;;;;;10487224;28;20110;-31
2022/12/03 23:04:38;;;;;;;13.02;7.22;;;18.10;52.60;;;;;;10491185;28;20374;-29
2022/12/03 23:09:39;;;;;;;21.63;7.93;;;18.00;52.60;;;;;;10487208;28;20059;-29
2022/12/03 23:14:43;;;;;;;11.65;6.80;;;18.00;52.60;;;;;;10489693;28;20096;-29
2022/12/03 23:19:45;;;;;;;14.93;7.78;;;18.00;52.50;;;;;;10480539;28;20457;-31
2022/12/03 23:24:46;;;;;;;16.53;7.70;;;18.00;52.50;;;;;;10471019;28;20123;-31
2022/12/03 23:29:50;;;;;;;18.47;10.83;;;18.00;52.40;;;;;;10478182;28;20532;-32
2022/12/03 23:34:53;;;;;;;14.55;8.50;;;18.00;52.40;;;;;;10474146;28;20078;-30
2022/12/03 23:39:55;;;;;;;16.95;7.30;;;17.90;52.40;;;;;;10486746;28;20076;-29
2022/12/03 23:44:58;;;;;;;14.65;8.25;;;17.90;52.40;;;;;;10471716;28;20095;-31
2022/12/03 23:50:00;;;;;;;14.23;8.48;;;17.90;52.50;;;;;;10478605;28;20102;-34
2022/12/03 23:55:02;;;;;;;13.73;8.18;;;17.80;52.40;;;;;;10467424;28;20111;-31
